Time;durP1;ratioP1;P1;durP2;ratioP2;P2;SDS_P1;SDS_P2;PMS_P1;PMS_P2;Temp;Humidity;BMP_temperature;BMP_pressure;BME280_temperature;BME280_humidity;BME280_pressure;Samples;Min_cycle;Max_cycle;Signal;HPM_P1;HPM_P2
2022/08/24 00:00:37;;;;;;;;;;;22.90;99.90;;;;;;5072642;28;19913;-85
2022/08/24 00:03:03;;;;;;;;;;;22.80;99.90;;;;;;5072432;28;19947;-84
2022/08/24 00:05:29;;;;;;;;;;;22.80;99.90;;;;;;5071205;28;19995;-84
2022/08/24 00:07:54;;;;;;;;;;;22.70;99.90;;;;;;5071105;28;19908;-85
2022/08/24 00:10:20;;;;;;;;;;;22.70;99.90;;;;;;5071176;28;19909;-85
2022/08/24 00:12:46;;;;;;;;;;;22.70;99.90;;;;;;5072369;28;19919;-84
2022/08/24 00:15:12;;;;;;;;;;;22.70;99.90;;;;;;5072322;28;20407;-84
2022/08/24 00:17:38;;;;;;;;;;;22.60;99.90;;;;;;5071005;28;19995;-84
2022/08/24 00:20:05;;;;;;;;;;;22.60;99.90;;;;;;5071052;28;20015;-84
2022/08/24 00:22:30;;;;;;;;;;;22.60;99.90;;;;;;5070960;28;20360;-84
2022/08/24 00:24:56;;;;;;;;;;;22.60;99.90;;;;;;5072292;28;19919;-84
2022/08/24 00:27:21;;;;;;;;;;;22.60;99.90;;;;;;5070914;28;20260;-84
2022/08/24 00:29:47;;;;;;;;;;;22.60;99.90;;;;;;5071079;28;20489;-85
2022/08/24 00:32:13;;;;;;;;;;;22.60;99.90;;;;;;5072433;28;20017;-85
2022/08/24 00:34:38;;;;;;;;;;;22.50;99.90;;;;;;5072241;28;20007;-84
2022/08/24 00:37:04;;;;;;;;;;;22.50;99.90;;;;;;5070523;28;19923;-84
2022/08/24 00:39:29;;;;;;;;;;;22.50;99.90;;;;;;5070923;28;20386;-84
2022/08/24 00:41:55;;;;;;;;;;;22.40;99.90;;;;;;5071010;28;20415;-84
2022/08/24 00:44:21;;;;;;;;;;;22.40;99.90;;;;;;5072204;28;19909;-84
2022/08/24 00:46:52;;;;;;;;;;;22.40;99.90;;;;;;5070512;28;19915;-84
2022/08/24 00:49:24;;;;;;;;;;;22.40;99.90;;;;;;5071958;28;19909;-84
2022/08/24 00:51:55;;;;;;;;;;;22.40;99.90;;;;;;5070768;28;19909;-84
2022/08/24 00:54:21;;;;;;;;;;;22.30;99.90;;;;;;5070803;28;19912;-83
2022/08/24 00:56:50;;;;;;;;;;;22.30;99.90;;;;;;5074088;28;19958;-84
2022/08/24 00:59:26;;;;;;;;;;;22.30;99.90;;;;;;5075767;28;19912;-83
2022/08/24 01:01:52;;;;;;;;;;;22.30;99.90;;;;;;5075846;28;19948;-84
2022/08/24 01:04:20;;;;;;;;;;;22.20;99.90;;;;;;5074470;28;19908;-84
2022/08/24 01:06:48;;;;;;;;;;;22.10;99.90;;;;;;5075364;28;19912;-85
2022/08/24 01:09:14;;;;;;;;;;;22.10;99.90;;;;;;5074096;28;19915;-85
2022/08/24 01:11:40;;;;;;;;;;;22.10;99.90;;;;;;5074243;28;20046;-85
2022/08/24 01:14:06;;;;;;;;;;;22.00;99.90;;;;;;5074255;28;20010;-84
2022/08/24 01:19:25;;;;;;;;;;;22.00;99.90;;;;;;5075645;28;19923;-84
2022/08/24 01:22:09;;;;;;;;;;;22.00;99.90;;;;;;5074082;28;20287;-85
2022/08/24 01:24:35;;;;;;;;;;;22.00;99.90;;;;;;5074011;28;19913;-86
2022/08/24 01:27:01;;;;;;;;;;;21.90;99.90;;;;;;5075622;28;19958;-86
2022/08/24 01:29:27;;;;;;;;;;;21.90;99.90;;;;;;5074477;28;19932;-86
2022/08/24 01:31:53;;;;;;;;;;;21.90;99.90;;;;;;5074315;28;19909;-85
2022/08/24 01:34:20;;;;;;;;;;;21.90;99.90;;;;;;5075590;28;19912;-85
2022/08/24 01:36:46;;;;;;;;;;;21.90;99.90;;;;;;5075420;28;19923;-86
2022/08/24 01:39:17;;;;;;;;;;;21.90;99.90;;;;;;5074216;28;19913;-85
2022/08/24 01:41:43;;;;;;;;;;;21.90;99.90;;;;;;5074238;28;19970;-85
2022/08/24 01:44:08;;;;;;;;;;;21.90;99.90;;;;;;5074220;28;20383;-85
2022/08/24 01:46:34;;;;;;;;;;;21.80;99.90;;;;;;5074020;28;19908;-85
2022/08/24 01:49:00;;;;;;;;;;;21.80;99.90;;;;;;5074077;28;19954;-85
2022/08/24 01:51:30;;;;;;;;;;;21.80;99.90;;;;;;5073932;28;20015;-85
2022/08/24 01:53:55;;;;;;;;;;;21.80;99.90;;;;;;5074133;28;20295;-85
2022/08/24 01:56:21;;;;;;;;;;;21.80;99.90;;;;;;5073771;28;19908;-85
2022/08/24 01:58:47;;;;;;;;;;;21.80;99.90;;;;;;5073662;28;19938;-85
2022/08/24 02:01:13;;;;;;;;;;;21.80;99.90;;;;;;5073920;28;19996;-85
2022/08/24 02:03:38;;;;;;;;;;;21.70;99.90;;;;;;5074958;28;20294;-85
2022/08/24 02:06:04;;;;;;;;;;;21.70;99.90;;;;;;5072865;28;19995;-85
2022/08/24 02:08:30;;;;;;;;;;;21.70;99.90;;;;;;5073056;28;19948;-85
2022/08/24 02:10:56;;;;;;;;;;;21.70;99.90;;;;;;5073527;28;20022;-86
2022/08/24 02:13:21;;;;;;;;;;;21.70;99.90;;;;;;5073422;28;20010;-85
2022/08/24 02:15:47;;;;;;;;;;;21.60;99.90;;;;;;5075221;22;19928;-75
2022/08/24 02:18:13;;;;;;;;;;;21.60;99.90;;;;;;5055880;28;20288;-75
2022/08/24 02:20:38;;;;;;;;;;;21.60;99.90;;;;;;5062405;28;19913;-75
2022/08/24 02:23:05;;;;;;;;;;;21.60;99.90;;;;;;5072671;28;19909;-76
2022/08/24 02:25:31;;;;;;;;;;;21.60;99.90;;;;;;5072524;28;19917;-75
2022/08/24 02:27:58;;;;;;;;;;;21.60;99.90;;;;;;5072542;28;19916;-76
2022/08/24 02:30:24;;;;;;;;;;;21.50;99.90;;;;;;5072459;28;19908;-75
2022/08/24 02:32:50;;;;;;;;;;;21.40;99.90;;;;;;5072454;28;19909;-76
2022/08/24 02:35:16;;;;;;;;;;;21.40;99.90;;;;;;5072375;28;20000;-74
2022/08/24 02:37:41;;;;;;;;;;;21.40;99.90;;;;;;5071304;22;20374;-77
2022/08/24 02:40:08;;;;;;;;;;;21.40;99.90;;;;;;5043625;28;20007;-76
2022/08/24 02:42:35;;;;;;;;;;;21.30;99.90;;;;;;5052212;28;19936;-76
2022/08/24 02:45:01;;;;;;;;;;;21.30;99.90;;;;;;5048923;28;19910;-77
2022/08/24 02:47:26;;;;;;;;;;;21.30;99.90;;;;;;5051701;28;19919;-76
2022/08/24 02:49:52;;;;;;;;;;;21.20;99.90;;;;;;5052017;28;20003;-76
2022/08/24 02:52:17;;;;;;;;;;;21.10;99.90;;;;;;5035202;28;19996;-76
2022/08/24 02:54:43;;;;;;;;;;;21.10;99.90;;;;;;5032104;28;20584;-76
2022/08/24 02:57:08;;;;;;;;;;;21.00;99.90;;;;;;5032003;28;19982;-76
2022/08/24 02:59:34;;;;;;;;;;;21.00;99.90;;;;;;5032656;28;19920;-76
2022/08/24 03:02:00;;;;;;;;;;;21.00;99.90;;;;;;5033862;28;19913;-76
2022/08/24 03:04:26;;;;;;;;;;;21.00;99.90;;;;;;5032010;28;19917;-77
2022/08/24 03:06:52;;;;;;;;;;;21.00;99.90;;;;;;5032920;28;20080;-76
2022/08/24 03:09:18;;;;;;;;;;;20.90;99.90;;;;;;5032021;28;20400;-76
2022/08/24 03:11:43;;;;;;;;;;;20.90;99.90;;;;;;5031886;28;20360;-76
2022/08/24 03:14:09;;;;;;;;;;;20.90;99.90;;;;;;5031616;28;19909;-76
2022/08/24 03:16:35;;;;;;;;;;;20.90;99.90;;;;;;5031280;28;19916;-76
2022/08/24 03:19:01;;;;;;;;;;;20.90;99.90;;;;;;5031261;28;20307;-76
2022/08/24 03:21:27;;;;;;;;;;;20.80;99.90;;;;;;5031556;28;19909;-76
2022/08/24 03:23:52;;;;;;;;;;;20.80;99.90;;;;;;5031647;28;19935;-76
2022/08/24 03:26:18;;;;;;;;;;;20.80;99.90;;;;;;5031608;28;20003;-76
2022/08/24 03:28:43;;;;;;;;;;;20.80;99.90;;;;;;5031553;28;19916;-76
2022/08/24 03:31:09;;;;;;;;;;;20.80;99.90;;;;;;5031489;28;19910;-76
2022/08/24 03:33:34;;;;;;;;;;;20.80;99.90;;;;;;5031503;28;19916;-76
2022/08/24 03:36:00;;;;;;;;;;;20.70;99.90;;;;;;5031199;28;19959;-76
2022/08/24 03:38:26;;;;;;;;;;;20.70;99.90;;;;;;5033042;28;19921;-76
2022/08/24 03:40:51;;;;;;;;;;;20.70;99.90;;;;;;5050956;28;19909;-76
2022/08/24 03:43:59;;;;;;;;;;;20.60;99.90;;;;;;5051120;28;19912;-76
2022/08/24 03:46:08;;;;;;;;;;;20.60;99.90;;;;;;5033847;28;19909;-76
2022/08/24 03:48:34;;;;;;;;;;;20.60;99.90;;;;;;5031209;28;19955;-76
2022/08/24 03:50:59;;;;;;;;;;;20.60;99.90;;;;;;5031158;28;19963;-76
2022/08/24 03:53:25;;;;;;;;;;;20.60;99.90;;;;;;5031271;28;19916;-76
2022/08/24 03:55:51;;;;;;;;;;;20.50;99.90;;;;;;5030931;28;19917;-77
2022/08/24 03:58:16;;;;;;;;;;;20.50;99.90;;;;;;5031097;28;19919;-76
2022/08/24 04:00:42;;;;;;;;;;;20.50;99.90;;;;;;5031020;28;20000;-76
2022/08/24 04:03:09;;;;;;;;;;;20.50;99.90;;;;;;5030987;28;19916;-76
2022/08/24 04:05:35;;;;;;;;;;;20.50;99.90;;;;;;5030836;28;19931;-76
2022/08/24 04:08:00;;;;;;;;;;;20.50;99.90;;;;;;5032498;28;20349;-75
2022/08/24 04:10:27;;;;;;;;;;;20.50;99.90;;;;;;5030902;28;19913;-76
2022/08/24 04:12:53;;;;;;;;;;;20.50;99.90;;;;;;5030913;28;19915;-76
2022/08/24 04:15:18;;;;;;;;;;;20.50;99.90;;;;;;5030733;28;20359;-76
2022/08/24 04:17:44;;;;;;;;;;;20.50;99.90;;;;;;5030629;28;19955;-76
2022/08/24 04:20:10;;;;;;;;;;;20.50;99.90;;;;;;5030704;28;19920;-76
2022/08/24 04:22:35;;;;;;;;;;;20.50;99.90;;;;;;5032312;28;19909;-77
2022/08/24 04:25:01;;;;;;;;;;;20.50;99.90;;;;;;5030813;28;19909;-76
2022/08/24 04:27:27;;;;;;;;;;;20.40;99.90;;;;;;5030617;28;20392;-76
2022/08/24 04:29:52;;;;;;;;;;;20.40;99.90;;;;;;5031520;28;19913;-77
2022/08/24 04:32:18;;;;;;;;;;;20.30;99.90;;;;;;5034991;28;20360;-77
2022/08/24 04:34:44;;;;;;;;;;;20.20;99.90;;;;;;5034907;28;20276;-77
2022/08/24 04:37:10;;;;;;;;;;;20.20;99.90;;;;;;5034546;28;19917;-77
2022/08/24 04:39:36;;;;;;;;;;;20.10;99.90;;;;;;5034718;28;20368;-76
2022/08/24 04:42:02;;;;;;;;;;;20.10;99.90;;;;;;5034790;28;19915;-77
2022/08/24 04:44:28;;;;;;;;;;;20.10;99.90;;;;;;5034682;28;19943;-77
2022/08/24 04:46:54;;;;;;;;;;;20.10;99.90;;;;;;5034339;28;20316;-76
2022/08/24 04:49:20;;;;;;;;;;;20.10;99.90;;;;;;5034646;28;19932;-77
2022/08/24 04:51:46;;;;;;;;;;;20.10;99.90;;;;;;5034465;28;19917;-76
2022/08/24 04:54:11;;;;;;;;;;;20.10;99.90;;;;;;5034842;28;19909;-77
2022/08/24 04:56:37;;;;;;;;;;;20.10;99.90;;;;;;5034234;28;19988;-77
2022/08/24 04:59:04;;;;;;;;;;;20.10;99.90;;;;;;5034270;28;20553;-77
2022/08/24 05:01:31;;;;;;;;;;;20.10;99.90;;;;;;5034288;28;19940;-76
2022/08/24 05:03:57;;;;;;;;;;;20.10;99.90;;;;;;5034443;28;19913;-77
2022/08/24 05:06:27;;;;;;;;;;;20.10;99.90;;;;;;5034122;28;20399;-77
2022/08/24 05:08:53;;;;;;;;;;;20.10;99.90;;;;;;5034244;28;19963;-77
2022/08/24 05:11:19;;;;;;;;;;;20.20;99.90;;;;;;5035347;28;19909;-77
2022/08/24 05:13:44;;;;;;;;;;;20.20;99.90;;;;;;5034097;28;20357;-77
2022/08/24 05:16:12;;;;;;;;;;;20.30;99.90;;;;;;5033829;28;19960;-77
2022/08/24 05:18:39;;;;;;;;;;;20.30;99.90;;;;;;5033743;28;20051;-76
2022/08/24 05:21:06;;;;;;;;;;;20.40;99.90;;;;;;5033844;28;19910;-77
2022/08/24 05:23:31;;;;;;;;;;;20.40;99.90;;;;;;5034018;28;19909;-77
2022/08/24 05:26:08;;;;;;;;;;;20.40;99.90;;;;;;5033611;28;19932;-77
2022/08/24 05:28:38;;;;;;;;;;;20.50;99.90;;;;;;5033892;28;20396;-77
2022/08/24 05:31:07;;;;;;;;;;;20.50;99.90;;;;;;5033758;28;19909;-76
2022/08/24 05:33:33;;;;;;;;;;;20.50;99.90;;;;;;5033867;28;20280;-77
2022/08/24 05:35:59;;;;;;;;;;;20.60;99.90;;;;;;5033399;28;19913;-77
2022/08/24 05:38:24;;;;;;;;;;;20.60;99.90;;;;;;5033615;28;19917;-77
2022/08/24 05:40:52;;;;;;;;;;;20.60;99.90;;;;;;5032670;28;20075;-77
2022/08/24 05:43:17;;;;;;;;;;;20.70;99.90;;;;;;5033574;28;19978;-77
2022/08/24 05:45:43;;;;;;;;;;;20.70;99.90;;;;;;5033227;28;19932;-77
2022/08/24 05:48:08;;;;;;;;;;;20.70;99.90;;;;;;5033429;28;19909;-77
2022/08/24 05:50:34;;;;;;;;;;;20.80;99.90;;;;;;5033314;28;19909;-77
2022/08/24 05:53:00;;;;;;;;;;;20.80;99.90;;;;;;5033409;28;19915;-77
2022/08/24 05:55:25;;;;;;;;;;;20.90;99.90;;;;;;5033314;28;19952;-77
2022/08/24 05:57:51;;;;;;;;;;;21.00;99.90;;;;;;5033142;28;19909;-77
2022/08/24 06:00:17;;;;;;;;;;;21.10;99.90;;;;;;5033185;28;19917;-77
2022/08/24 06:02:43;;;;;;;;;;;21.20;99.90;;;;;;5033152;28;19909;-77
2022/08/24 06:05:08;;;;;;;;;;;21.30;99.90;;;;;;5033140;28;19963;-77
2022/08/24 06:07:34;;;;;;;;;;;21.50;99.90;;;;;;5032899;28;19909;-77
2022/08/24 06:10:00;;;;;;;;;;;21.60;99.90;;;;;;5033020;28;19916;-77
2022/08/24 06:12:26;;;;;;;;;;;21.70;99.90;;;;;;5033108;28;20373;-77
2022/08/24 06:14:52;;;;;;;;;;;21.90;99.90;;;;;;5032893;28;19909;-77
2022/08/24 06:17:17;;;;;;;;;;;22.00;99.90;;;;;;5032741;28;19916;-77
2022/08/24 06:19:43;;;;;;;;;;;22.20;99.90;;;;;;5033244;28;20316;-79
2022/08/24 06:22:08;;;;;;;;;;;22.30;99.90;;;;;;5033145;28;20003;-79
2022/08/24 06:27:22;;;;;;;;;;;22.50;99.90;;;;;;5039120;28;19916;-81
2022/08/24 06:29:48;;;;;;;;;;;22.70;99.90;;;;;;5037615;28;22055;-81
2022/08/24 06:32:13;;;;;;;;;;;22.80;99.90;;;;;;5037782;28;19909;-80
2022/08/24 06:34:39;;;;;;;;;;;22.90;99.90;;;;;;5037420;28;19909;-81
2022/08/24 06:37:04;;;;;;;;;;;23.00;99.90;;;;;;5037283;28;19917;-80
2022/08/24 06:39:30;;;;;;;;;;;23.10;99.90;;;;;;5037606;28;19913;-81
2022/08/24 06:41:56;;;;;;;;;;;23.20;99.90;;;;;;5037220;28;20336;-81
2022/08/24 06:44:21;;;;;;;;;;;23.30;99.90;;;;;;5036930;28;20518;-80
2022/08/24 06:46:47;;;;;;;;;;;23.40;99.90;;;;;;5036210;28;19916;-79
2022/08/24 06:49:13;;;;;;;;;;;23.40;99.90;;;;;;5035399;28;20333;-80
2022/08/24 06:51:38;;;;;;;;;;;23.60;99.90;;;;;;5035675;28;20265;-79
2022/08/24 06:54:04;;;;;;;;;;;23.70;99.90;;;;;;5035262;28;19964;-80
2022/08/24 06:56:30;;;;;;;;;;;23.80;99.90;;;;;;5035265;28;20589;-80
2022/08/24 06:58:55;;;;;;;;;;;23.90;99.90;;;;;;5035247;28;19917;-81
2022/08/24 07:01:23;;;;;;;;;;;24.00;99.90;;;;;;5036378;28;19913;-81
2022/08/24 07:03:48;;;;;;;;;;;24.00;99.90;;;;;;5035656;28;19913;-79
2022/08/24 07:06:14;;;;;;;;;;;24.10;99.90;;;;;;5036059;28;20356;-81
2022/08/24 07:08:41;;;;;;;;;;;24.20;99.90;;;;;;5035523;28;19909;-80
2022/08/24 07:11:07;;;;;;;;;;;24.30;99.90;;;;;;5035806;28;20385;-79
2022/08/24 07:13:33;;;;;;;;;;;24.40;99.90;;;;;;5035853;28;19909;-79
2022/08/24 07:15:59;;;;;;;;;;;24.50;99.90;;;;;;5034684;28;19909;-80
2022/08/24 07:18:25;;;;;;;;;;;24.60;99.90;;;;;;5035268;28;20000;-79
2022/08/24 07:20:51;;;;;;;;;;;24.60;99.90;;;;;;5035373;28;20369;-80
2022/08/24 07:23:17;;;;;;;;;;;24.70;99.90;;;;;;5034915;28;20003;-81
2022/08/24 07:25:43;;;;;;;;;;;24.80;99.90;;;;;;5034825;28;19931;-80
2022/08/24 07:28:10;;;;;;;;;;;24.90;99.90;;;;;;5035451;28;20007;-80
2022/08/24 07:30:36;;;;;;;;;;;25.00;99.90;;;;;;5035989;28;19913;-80
2022/08/24 07:33:01;;;;;;;;;;;25.10;99.90;;;;;;5036856;28;19916;-80
2022/08/24 07:35:28;;;;;;;;;;;25.20;99.90;;;;;;5035644;28;20276;-81
2022/08/24 07:37:55;;;;;;;;;;;25.30;99.90;;;;;;5034688;28;19923;-80
2022/08/24 07:40:21;;;;;;;;;;;25.40;99.90;;;;;;5034923;28;20008;-79
2022/08/24 07:42:51;;;;;;;;;;;25.40;99.90;;;;;;5032368;28;19917;-77
2022/08/24 07:45:17;;;;;;;;;;;25.50;99.90;;;;;;5031994;28;19913;-78
2022/08/24 07:47:43;;;;;;;;;;;25.60;99.90;;;;;;5030652;28;20357;-78
2022/08/24 07:50:10;;;;;;;;;;;25.60;99.90;;;;;;5031376;28;19949;-78
2022/08/24 07:52:36;;;;;;;;;;;25.70;99.90;;;;;;5031287;28;19913;-77
2022/08/24 07:55:02;;;;;;;;;;;25.80;99.90;;;;;;5031260;28;20385;-78
2022/08/24 07:57:28;;;;;;;;;;;25.90;99.90;;;;;;5038273;28;19956;-78
2022/08/24 07:59:53;;;;;;;;;;;26.00;99.90;;;;;;5043988;28;20450;-79
2022/08/24 08:02:19;;;;;;;;;;;26.00;99.90;;;;;;5050511;28;19955;-78
2022/08/24 08:04:45;;;;;;;;;;;26.10;99.90;;;;;;5050404;28;19909;-79
2022/08/24 08:07:13;;;;;;;;;;;26.20;99.90;;;;;;5052736;28;20379;-78
2022/08/24 08:09:39;;;;;;;;;;;26.20;99.90;;;;;;5051183;28;19908;-79
2022/08/24 08:12:05;;;;;;;;;;;26.40;99.90;;;;;;5050764;28;19958;-78
2022/08/24 08:14:31;;;;;;;;;;;26.50;99.90;;;;;;5050753;28;20299;-79
2022/08/24 08:16:56;;;;;;;;;;;26.50;99.90;;;;;;5050775;28;19963;-77
2022/08/24 08:19:22;;;;;;;;;;;26.70;99.90;;;;;;5051193;28;19936;-78
2022/08/24 08:24:35;;;;;;;;;;;26.90;99.90;;;;;;5052199;28;20008;-78
2022/08/24 08:27:01;;;;;;;;;;;27.00;99.90;;;;;;5050070;28;19909;-78
2022/08/24 08:29:27;;;;;;;;;;;27.20;99.90;;;;;;5051035;28;19916;-78
2022/08/24 08:31:52;;;;;;;;;;;27.30;99.90;;;;;;5050853;28;20288;-77
2022/08/24 08:34:18;;;;;;;;;;;27.40;99.90;;;;;;5050954;28;20347;-78
2022/08/24 08:39:11;;;;;;;;;;;28.00;99.90;;;;;;5129378;22;19938;-86
2022/08/24 08:41:41;;;;;;;;;;;29.00;99.90;;;;;;5112507;28;19955;-86
2022/08/24 08:44:25;;;;;;;;;;;30.60;99.90;;;;;;5112184;28;19908;-86
2022/08/24 08:46:59;;;;;;;;;;;32.00;96.10;;;;;;5110713;28;20337;-86
2022/08/24 08:49:44;;;;;;;;;;;33.30;90.30;;;;;;5091880;28;19931;-87
2022/08/24 08:52:25;;;;;;;;;;;34.80;84.70;;;;;;5093051;28;19966;-87
2022/08/24 08:55:22;;;;;;;;;;;36.40;73.20;;;;;;5091964;28;19915;-87
2022/08/24 08:58:03;;;;;;;;;;;37.80;67.50;;;;;;5091315;28;19912;-87
2022/08/24 09:00:47;;;;;;;;;;;39.10;58.70;;;;;;5093017;28;19963;-87
2022/08/24 09:03:13;;;;;;;;;;;40.10;53.80;;;;;;5091091;28;19908;-88
2022/08/24 09:05:50;;;;;;;;;;;41.10;50.50;;;;;;5091071;28;20412;-88
2022/08/24 09:08:27;;;;;;;;;;;42.10;49.00;;;;;;5092477;28;19915;-87
2022/08/24 09:11:04;;;;;;;;;;;42.80;45.20;;;;;;5091426;28;19943;-89
2022/08/24 09:13:43;;;;;;;;;;;43.40;42.70;;;;;;5091289;28;19908;-89
2022/08/24 09:16:27;;;;;;;;;;;44.00;41.00;;;;;;5093589;28;20439;-87
2022/08/24 09:19:12;;;;;;;;;;;44.30;39.40;;;;;;5097339;28;19911;-88
2022/08/24 09:21:48;;;;;;;;;;;44.90;37.60;;;;;;5095841;28;19919;-85
2022/08/24 09:24:32;;;;;;;;;;;45.30;35.70;;;;;;5097648;28;19943;-84
2022/08/24 09:27:01;;;;;;;;;;;45.50;35.70;;;;;;5097329;28;19951;-86
2022/08/24 09:29:42;;;;;;;;;;;45.20;35.50;;;;;;5099868;28;19912;-84
2022/08/24 09:32:22;;;;;;;;;;;44.90;35.40;;;;;;5093241;28;19912;-85
2022/08/24 09:34:56;;;;;;;;;;;44.90;34.80;;;;;;5077112;28;19913;-85
2022/08/24 09:37:54;;;;;;;;;;;45.50;34.90;;;;;;5083077;28;19912;-85
2022/08/24 09:40:38;;;;;;;;;;;46.20;33.70;;;;;;5046704;28;19912;-84
2022/08/24 09:43:04;;;;;;;;;;;46.30;32.40;;;;;;5092741;28;19912;-85
2022/08/24 09:45:34;;;;;;;;;;;46.50;33.20;;;;;;5104842;28;19908;-86
2022/08/24 09:48:15;;;;;;;;;;;46.90;32.30;;;;;;5105916;28;19915;-84
2022/08/24 09:50:50;;;;;;;;;;;47.40;31.10;;;;;;5109077;28;20474;-85
2022/08/24 09:53:18;;;;;;;;;;;47.60;30.70;;;;;;5103966;28;19908;-86
2022/08/24 09:55:57;;;;;;;;;;;47.70;31.70;;;;;;5091080;28;20015;-85
2022/08/24 09:58:37;;;;;;;;;;;47.70;30.20;;;;;;5097714;28;19966;-84
2022/08/24 10:01:10;;;;;;;;;;;47.80;29.70;;;;;;5103077;28;20283;-85
2022/08/24 10:03:44;;;;;;;;;;;47.90;28.90;;;;;;5097625;28;19908;-84
2022/08/24 10:06:12;;;;;;;;;;;47.80;29.20;;;;;;5094490;28;19946;-84
2022/08/24 10:08:53;;;;;;;;;;;47.80;29.00;;;;;;5093920;28;20276;-83
2022/08/24 10:11:25;;;;;;;;;;;48.20;29.20;;;;;;5096419;28;19919;-85
2022/08/24 10:13:58;;;;;;;;;;;47.70;28.10;;;;;;5094581;28;19908;-85
2022/08/24 10:16:44;;;;;;;;;;;47.40;28.60;;;;;;5107075;28;20306;-86
2022/08/24 10:19:22;;;;;;;;;;;47.10;28.80;;;;;;5106308;28;19927;-85
2022/08/24 10:22:04;;;;;;;;;;;47.10;28.80;;;;;;5106874;28;19962;-86
2022/08/24 10:24:35;;;;;;;;;;;45.90;29.10;;;;;;5104066;28;19999;-85
2022/08/24 10:27:17;;;;;;;;;;;44.50;29.60;;;;;;5101219;28;19947;-86
2022/08/24 10:29:55;;;;;;;;;;;44.10;29.90;;;;;;5111100;28;19905;-86
2022/08/24 10:32:23;;;;;;;;;;;43.60;30.90;;;;;;5118754;28;19923;-86
2022/08/24 10:35:03;;;;;;;;;;;43.50;31.20;;;;;;5103960;28;19919;-87
2022/08/24 10:37:44;;;;;;;;;;;43.70;30.70;;;;;;5101201;28;19920;-86
2022/08/24 10:40:15;;;;;;;;;;;43.80;30.60;;;;;;5102666;28;19908;-85
2022/08/24 10:45:47;;;;;;;;;;;42.80;31.50;;;;;;5105678;28;19915;-85
2022/08/24 10:48:30;;;;;;;;;;;42.50;31.50;;;;;;5104422;28;19976;-86
2022/08/24 10:51:11;;;;;;;;;;;42.40;31.10;;;;;;5102396;28;19927;-86
2022/08/24 10:53:37;;;;;;;;;;;42.60;31.20;;;;;;5099504;28;19912;-86
2022/08/24 10:56:08;;;;;;;;;;;42.20;30.70;;;;;;5098318;28;19934;-86
2022/08/24 10:58:36;;;;;;;;;;;42.00;31.50;;;;;;5097653;28;19951;-84
2022/08/24 11:01:13;;;;;;;;;;;42.20;31.20;;;;;;5092736;28;19912;-85
2022/08/24 11:03:47;;;;;;;;;;;42.60;31.00;;;;;;5093388;28;19908;-85
2022/08/24 11:06:14;;;;;;;;;;;42.20;31.00;;;;;;5093283;28;19908;-85
2022/08/24 11:08:49;;;;;;;;;;;41.30;32.10;;;;;;5092379;28;19999;-85
2022/08/24 11:11:22;;;;;;;;;;;40.20;31.60;;;;;;5092501;28;19915;-85
2022/08/24 11:13:59;;;;;;;;;;;39.20;34.20;;;;;;5093888;28;19965;-85
2022/08/24 11:16:35;;;;;;;;;;;38.20;34.20;;;;;;5093675;28;19915;-85
2022/08/24 11:19:02;;;;;;;;;;;37.50;35.90;;;;;;5100881;28;19977;-85
2022/08/24 11:21:37;;;;;;;;;;;36.70;36.90;;;;;;5109939;28;19912;-84
2022/08/24 11:24:05;;;;;;;;;;;36.10;37.40;;;;;;5101046;28;19915;-86
2022/08/24 11:26:44;;;;;;;;;;;35.60;37.30;;;;;;5104996;28;19957;-84
2022/08/24 11:29:09;;;;;;;;;;;35.20;38.30;;;;;;5104433;28;20260;-85
2022/08/24 11:31:38;;;;;;;;;;;35.00;39.30;;;;;;5105314;28;19934;-85
2022/08/24 11:34:06;;;;;;;;;;;34.70;39.90;;;;;;5100573;28;19908;-86
2022/08/24 11:36:33;;;;;;;;;;;34.60;39.20;;;;;;5102743;28;19972;-85
2022/08/24 11:39:08;;;;;;;;;;;34.40;39.50;;;;;;5109828;28;19916;-84
2022/08/24 11:41:47;;;;;;;;;;;34.30;38.90;;;;;;5107497;28;19912;-83
2022/08/24 11:44:28;;;;;;;;;;;34.10;38.70;;;;;;5106655;28;19931;-84
2022/08/24 11:47:01;;;;;;;;;;;34.10;39.90;;;;;;5103026;28;19915;-85
2022/08/24 11:49:45;;;;;;;;;;;34.10;40.20;;;;;;5104891;28;20268;-86
2022/08/24 11:52:10;;;;;;;;;;;33.90;40.80;;;;;;5101190;28;19908;-86
2022/08/24 11:54:57;;;;;;;;;;;33.90;40.30;;;;;;5103455;28;19950;-87
2022/08/24 11:57:22;;;;;;;;;;;33.90;41.30;;;;;;5108683;28;19909;-86
2022/08/24 12:00:09;;;;;;;;;;;33.90;41.70;;;;;;5107520;28;20013;-86
2022/08/24 12:02:37;;;;;;;;;;;33.90;40.50;;;;;;5103620;28;19948;-87
2022/08/24 12:05:21;;;;;;;;;;;34.00;41.10;;;;;;5100315;28;19912;-86
2022/08/24 12:07:48;;;;;;;;;;;34.00;40.10;;;;;;5103961;28;19974;-86
2022/08/24 12:10:23;;;;;;;;;;;34.10;39.40;;;;;;5100027;28;19923;-88
2022/08/24 12:12:53;;;;;;;;;;;34.20;38.80;;;;;;5087769;28;19919;-86
2022/08/24 12:15:18;;;;;;;;;;;34.20;38.80;;;;;;5103211;28;19908;-87
2022/08/24 12:17:49;;;;;;;;;;;34.30;40.50;;;;;;5099290;28;19915;-85
2022/08/24 12:20:28;;;;;;;;;;;34.30;41.20;;;;;;5092756;28;19915;-86
2022/08/24 12:22:59;;;;;;;;;;;34.40;39.00;;;;;;5092893;28;19915;-84
2022/08/24 12:28:26;;;;;;;;;;;34.60;38.00;;;;;;5095326;28;19958;-86
2022/08/24 12:30:53;;;;;;;;;;;34.70;38.20;;;;;;5097127;28;20343;-86
2022/08/24 12:33:23;;;;;;;;;;;34.50;37.00;;;;;;5091527;28;20006;-91
2022/08/24 12:35:51;;;;;;;;;;;34.30;37.80;;;;;;5074223;28;19909;-90
2022/08/24 12:38:22;;;;;;;;;;;34.30;38.60;;;;;;5071499;28;19963;-91
2022/08/24 12:40:51;;;;;;;;;;;34.30;39.70;;;;;;5071955;28;19913;-90
2022/08/24 12:43:23;;;;;;;;;;;34.30;39.90;;;;;;5083922;28;19912;-89
2022/08/24 12:45:50;;;;;;;;;;;34.40;39.20;;;;;;5072002;28;19912;-86
2022/08/24 12:48:30;;;;;;;;;;;34.50;39.00;;;;;;5079651;28;20290;-86
2022/08/24 12:51:04;;;;;;;;;;;34.60;39.20;;;;;;5092245;28;19912;-86
2022/08/24 12:53:48;;;;;;;;;;;34.60;38.40;;;;;;5094991;28;20393;-86
2022/08/24 12:56:17;;;;;;;;;;;34.70;39.40;;;;;;5094691;28;20359;-85
2022/08/24 12:58:49;;;;;;;;;;;34.70;37.20;;;;;;5094755;28;19908;-87
2022/08/24 13:01:15;;;;;;;;;;;34.80;38.70;;;;;;5094781;28;19915;-87
2022/08/24 13:03:42;;;;;;;;;;;34.80;39.20;;;;;;5095022;28;19916;-86
2022/08/24 13:06:18;;;;;;;;;;;34.90;38.90;;;;;;5094917;28;19973;-86
2022/08/24 13:08:46;;;;;;;;;;;35.00;37.70;;;;;;5095010;28;20363;-85
2022/08/24 13:11:11;;;;;;;;;;;35.00;38.30;;;;;;5094696;28;19957;-87
2022/08/24 13:13:42;;;;;;;;;;;35.00;37.70;;;;;;5095896;28;19912;-86
2022/08/24 13:16:08;;;;;;;;;;;35.00;38.50;;;;;;5094484;28;19954;-83
2022/08/24 13:18:53;;;;;;;;;;;35.00;37.70;;;;;;5094618;28;19908;-84
2022/08/24 13:21:37;;;;;;;;;;;35.00;37.00;;;;;;5093907;28;20417;-84
2022/08/24 13:24:22;;;;;;;;;;;35.00;36.20;;;;;;5094186;28;20371;-84
2022/08/24 13:26:47;;;;;;;;;;;35.00;37.50;;;;;;5095206;28;19970;-84
2022/08/24 13:29:14;;;;;;;;;;;35.00;36.00;;;;;;5094257;28;19913;-84
2022/08/24 13:31:47;;;;;;;;;;;34.90;36.60;;;;;;5094208;28;19938;-84
2022/08/24 13:34:13;;;;;;;;;;;34.90;38.20;;;;;;5094218;28;20438;-84
2022/08/24 13:36:44;;;;;;;;;;;35.00;36.50;;;;;;5093874;28;19909;-85
2022/08/24 13:39:15;;;;;;;;;;;35.40;38.10;;;;;;5095512;28;19956;-85
2022/08/24 13:41:44;;;;;;;;;;;35.50;37.80;;;;;;5093838;28;20417;-84
2022/08/24 13:44:33;;;;;;;;;;;35.70;38.20;;;;;;5093877;28;19912;-84
2022/08/24 13:47:01;;;;;;;;;;;36.10;37.00;;;;;;5093261;28;19916;-84
2022/08/24 13:49:36;;;;;;;;;;;36.60;36.00;;;;;;5093687;28;19955;-84
2022/08/24 13:52:09;;;;;;;;;;;36.80;35.30;;;;;;5093664;28;19954;-84
2022/08/24 13:54:47;;;;;;;;;;;37.20;35.50;;;;;;5093577;28;19908;-84
2022/08/24 13:57:13;;;;;;;;;;;37.30;35.70;;;;;;5093486;28;19908;-85
2022/08/24 14:00:02;;;;;;;;;;;37.00;34.40;;;;;;5093418;28;20425;-85
2022/08/24 14:02:46;;;;;;;;;;;36.80;34.70;;;;;;5094635;28;19958;-85
2022/08/24 14:05:17;;;;;;;;;;;36.60;34.60;;;;;;5093489;28;20010;-85
2022/08/24 14:07:42;;;;;;;;;;;36.40;36.10;;;;;;5093267;28;19908;-85
2022/08/24 14:10:26;;;;;;;;;;;36.40;37.20;;;;;;5093230;28;19919;-84
2022/08/24 14:13:01;;;;;;;;;;;36.30;34.90;;;;;;5093455;28;19908;-84
2022/08/24 14:15:45;;;;;;;;;;;36.20;36.80;;;;;;5093231;28;19912;-84
2022/08/24 14:18:32;;;;;;;;;;;36.30;37.60;;;;;;5093219;28;19908;-85
2022/08/24 14:21:13;;;;;;;;;;;36.20;36.60;;;;;;5093194;28;19935;-84
2022/08/24 14:23:55;;;;;;;;;;;36.20;37.20;;;;;;5093112;28;20404;-84
2022/08/24 14:26:33;;;;;;;;;;;36.50;35.60;;;;;;5092905;28;19926;-84
2022/08/24 14:29:25;;;;;;;;;;;36.80;33.50;;;;;;5093089;28;19912;-84
2022/08/24 14:31:54;;;;;;;;;;;36.90;37.30;;;;;;5092849;28;19958;-84
2022/08/24 14:34:25;;;;;;;;;;;36.90;34.60;;;;;;5093010;28;20295;-84
2022/08/24 14:37:04;;;;;;;;;;;36.70;35.90;;;;;;5093557;28;19908;-84
2022/08/24 14:39:40;;;;;;;;;;;37.00;34.20;;;;;;5115854;22;20391;-86
2022/08/24 14:42:08;;;;;;;;;;;37.60;34.60;;;;;;5097184;28;19908;-86
2022/08/24 14:44:45;;;;;;;;;;;38.60;34.40;;;;;;5096812;28;20270;-87
2022/08/24 14:47:20;;;;;;;;;;;39.50;35.40;;;;;;5096382;28;19911;-88